ADDS METAR Data INFO
IDs: Format: Raw Decoded Include TAF

Data at: 0102 UTC 21 Oct 2017

KMCW 210053Z AUTO 17013G21KT 10SM CLR 18/09 A2982 RMK AO2 SLP094 T01780094
KMCW 202353Z AUTO 16016KT 10SM CLR 19/09 A2982 RMK AO2 PK WND 17026/2304 SLP093 T01890089 10239 20189 55006
KMCW 202253Z AUTO 17020G30KT 10SM CLR 21/08 A2981 RMK AO2 PK WND 16030/2242 SLP088 T02110083
KMCW 202153Z AUTO 17018G26KT 10SM CLR 22/09 A2983 RMK AO2 PK WND 18031/2126 SLP095 T02220094
KMCW 202053Z AUTO 17021G28KT 10SM CLR 23/09 A2984 RMK AO2 PK WND 17030/2014 SLP097 T02330094 56027
KMCW 201953Z AUTO 17019G28KT 10SM CLR 24/09 A2986 RMK AO2 PK WND 18028/1905 SLP104 T02390094
KMCW 201853Z AUTO 19016G29KT 10SM CLR 23/10 A2988 RMK AO2 PK WND 18029/1846 SLP112 T02330100
KMCW 201753Z AUTO 18017G22KT 10SM CLR 24/11 A2992 RMK AO2 SLP125 T02390111 10239 20094 58025
KMCW 201653Z AUTO 19015G23KT 10SM CLR 22/11 A2995 RMK AO2 SLP138 T02170106
KMCW 201553Z AUTO 19011G20KT 10SM CLR 19/12 A2998 RMK AO2 SLP147 T01890117
KMCW 201453Z AUTO 19012G19KT 10SM CLR 16/12 A3000 RMK AO2 SLP153 T01610117 58001
KMCW 201353Z AUTO 18009KT 10SM CLR 13/11 A3000 RMK AO2 SLP155 T01280111
KMCW 201253Z AUTO 18009KT 10SM CLR 10/09 A3000 RMK AO2 SLP157 T01000089
KMCW 201153Z AUTO 19007KT 10SM CLR 10/09 A3000 RMK AO2 SLP156 T01000089 10100 20072 51002
KMCW 201053Z AUTO 18006KT 10SM CLR 09/08 A3000 RMK AO2 SLP155 T00890078
KMCW 200953Z AUTO 17006KT 10SM CLR 08/07 A3000 RMK AO2 SLP152 T00830072
KMCW 200853Z AUTO 18007KT 10SM CLR 09/08 A3000 RMK AO2 SLP152 T00890078 57003
KMCW 200753Z AUTO 19006KT 10SM CLR 07/07 A3000 RMK AO2 SLP153 T00720067
KMCW 200653Z AUTO 18006KT 10SM CLR 08/07 A3000 RMK AO2 SLP155 T00830072
KMCW 200553Z AUTO 18005KT 10SM CLR 08/07 A3000 RMK AO2 SLP156 T00780067 10156 20072 402220011 58004
KMCW 200453Z AUTO 15007KT 10SM CLR 09/07 A3001 RMK AO2 SLP158 T00890072
KMCW 200353Z AUTO 15007KT 10SM CLR 11/08 A3002 RMK AO2 SLP161 T01110078
KMCW 200253Z AUTO 15007KT 10SM CLR 12/07 A3002 RMK AO2 SLP162 T01220072 56002
KMCW 200153Z AUTO 16010KT 10SM CLR 14/07 A3002 RMK AO2 SLP163 T01390067
KMCW 200053Z AUTO 17007KT 10SM CLR 14/06 A3002 RMK AO2 SLP167 T01390056
KMCW 192353Z AUTO 14007KT 10SM CLR 15/04 A3002 RMK AO2 SLP167 T01500044 10222 20150 56009
KMCW 192253Z AUTO 15009KT 8SM CLR 19/04 A3003 RMK AO2 SLP167 T01890039
KMCW 192153Z AUTO 16009G17KT 10SM CLR 21/04 A3004 RMK AO2 SLP171 T02110039
KMCW 192053Z AUTO 17015KT 10SM CLR 22/03 A3005 RMK AO2 SLP174 T02170028 56022
KMCW 191953Z AUTO 16016KT 10SM CLR 21/01 A3007 RMK AO2 SLP179 T02060011
KMCW 191853Z AUTO 15015G20KT 10SM CLR 20/00 A3009 RMK AO2 SLP187 T02000000
KMCW 191753Z AUTO 17015KT 10SM CLR 19/M01 A3012 RMK AO2 SLP196 T01941006 10194 20017 58006
KMCW 191653Z AUTO 15013KT 10SM CLR 18/00 A3014 RMK AO2 SLP203 T01780000
KMCW 191553Z AUTO 15009KT 10SM CLR 16/M01 A3014 RMK AO2 SLP202 T01561006
KMCW 191453Z AUTO 16010KT 10SM CLR 12/03 A3014 RMK AO2 SLP205 T01170028 51010
KMCW 191353Z AUTO 17005KT 10SM CLR 07/03 A3014 RMK AO2 SLP206 T00720033